Ana Sayfa
METAR-TAF:

METAR-TAF

Havaalanları :

Tulcán, Ekvador

Enlem: 00-48-34N, Boylam: 077-42-29W, yükseklik: 2941 m

Güncel hava durumu gözlemi

Rapor saat 14:00 UTC de 59 dakika önce yapıldı.
Rüzgar doğudan 5 kt
Sıcaklık 12°C
Nem 88%
Basınç 1033 hPa
Görüş mesafesi 10 km veya daha fazla
2000 ft yükseklikte parçalı çok bulutlu

METAR: SETU 181400Z 08005KT 9999 BKN020 12/10 Q1033

Saat: 09:59 (14:59 UTC)


TAF: eksik

4.000'den fazla havaalanı için hava durumu gözlemleri ve tahminleri (METAR ve TAF raporları).

Kullanılabilir istasyonlar harita üzerinde sarı ve kırmızı noktalarla gösterilir.

İstasyonun adını görmek için fareyi noktanın üzerinde gezdirin.

Sonrasında hava gözlem ve tahminlerini görmek için tıklayın.

Haritayı değiştirmek için: yaklaştırmak için siyah artı işaretli yeşil düğmeye ve uzaklaştırmak için de eksi işaretli düğmeye hızla tıklayın; bitişik haritalar için yeşil okları kullanın.


METAR-TAF: